sensor_id;sensor_type;location;lat;lon;timestamp;temperature;humidity
66140;DHT22;52945;51.908;8.364;2023-06-24T00:00:35;21.10;68.70
66140;DHT22;52945;51.908;8.364;2023-06-24T00:03:37;21.00;69.00
66140;DHT22;52945;51.908;8.364;2023-06-24T00:06:38;20.90;68.50
66140;DHT22;52945;51.908;8.364;2023-06-24T00:09:40;20.90;68.80
66140;DHT22;52945;51.908;8.364;2023-06-24T00:12:41;20.80;68.10
66140;DHT22;52945;51.908;8.364;2023-06-24T00:15:42;20.80;69.30
66140;DHT22;52945;51.908;8.364;2023-06-24T00:18:43;20.70;67.50
66140;DHT22;52945;51.908;8.364;2023-06-24T00:21:43;20.80;66.60
66140;DHT22;52945;51.908;8.364;2023-06-24T00:24:44;20.80;66.80
66140;DHT22;52945;51.908;8.364;2023-06-24T00:27:45;20.70;67.50
66140;DHT22;52945;51.908;8.364;2023-06-24T00:30:47;20.70;69.70
66140;DHT22;52945;51.908;8.364;2023-06-24T00:33:48;20.70;69.00
66140;DHT22;52945;51.908;8.364;2023-06-24T00:36:50;20.60;68.50
66140;DHT22;52945;51.908;8.364;2023-06-24T00:39:50;20.50;69.30
66140;DHT22;52945;51.908;8.364;2023-06-24T00:42:51;20.50;70.50
66140;DHT22;52945;51.908;8.364;2023-06-24T00:45:52;20.50;69.80
66140;DHT22;52945;51.908;8.364;2023-06-24T00:48:55;20.50;70.30
66140;DHT22;52945;51.908;8.364;2023-06-24T00:51:55;20.50;70.30
66140;DHT22;52945;51.908;8.364;2023-06-24T00:54:56;20.40;69.70
66140;DHT22;52945;51.908;8.364;2023-06-24T00:57:57;20.40;70.60
66140;DHT22;52945;51.908;8.364;2023-06-24T01:01:00;20.30;69.40
66140;DHT22;52945;51.908;8.364;2023-06-24T01:04:02;20.30;69.90
66140;DHT22;52945;51.908;8.364;2023-06-24T01:07:05;20.20;69.80
66140;DHT22;52945;51.908;8.364;2023-06-24T01:10:06;20.20;70.70
66140;DHT22;52945;51.908;8.364;2023-06-24T01:13:08;20.20;70.90
66140;DHT22;52945;51.908;8.364;2023-06-24T01:16:10;20.20;70.80
66140;DHT22;52945;51.908;8.364;2023-06-24T01:33:34;20.10;71.10
66140;DHT22;52945;51.908;8.364;2023-06-24T01:36:38;20.00;69.60
66140;DHT22;52945;51.908;8.364;2023-06-24T01:39:49;20.00;70.00
66140;DHT22;52945;51.908;8.364;2023-06-24T01:42:50;19.90;70.60
66140;DHT22;52945;51.908;8.364;2023-06-24T01:45:52;19.90;69.10
66140;DHT22;52945;51.908;8.364;2023-06-24T01:48:58;19.90;68.70
66140;DHT22;52945;51.908;8.364;2023-06-24T01:52:00;19.90;70.40
66140;DHT22;52945;51.908;8.364;2023-06-24T01:55:01;19.90;70.00
66140;DHT22;52945;51.908;8.364;2023-06-24T01:58:06;19.80;69.50
66140;DHT22;52945;51.908;8.364;2023-06-24T02:01:07;19.90;69.90
66140;DHT22;52945;51.908;8.364;2023-06-24T02:04:08;19.80;68.60
66140;DHT22;52945;51.908;8.364;2023-06-24T02:07:11;19.80;67.90
66140;DHT22;52945;51.908;8.364;2023-06-24T02:10:14;19.80;69.80
66140;DHT22;52945;51.908;8.364;2023-06-24T02:13:16;19.80;68.30
66140;DHT22;52945;51.908;8.364;2023-06-24T02:16:18;19.80;70.20
66140;DHT22;52945;51.908;8.364;2023-06-24T02:19:20;19.70;69.80
66140;DHT22;52945;51.908;8.364;2023-06-24T02:22:21;19.70;69.90
66140;DHT22;52945;51.908;8.364;2023-06-24T02:25:23;19.70;69.00
66140;DHT22;52945;51.908;8.364;2023-06-24T02:28:25;19.60;69.00
66140;DHT22;52945;51.908;8.364;2023-06-24T02:31:25;19.60;69.80
66140;DHT22;52945;51.908;8.364;2023-06-24T02:34:26;19.60;70.90
66140;DHT22;52945;51.908;8.364;2023-06-24T02:37:26;19.60;70.40
66140;DHT22;52945;51.908;8.364;2023-06-24T02:40:27;19.60;69.70
66140;DHT22;52945;51.908;8.364;2023-06-24T02:43:28;19.50;70.60
66140;DHT22;52945;51.908;8.364;2023-06-24T02:46:30;19.50;70.00
66140;DHT22;52945;51.908;8.364;2023-06-24T02:49:33;19.50;70.20
66140;DHT22;52945;51.908;8.364;2023-06-24T02:52:35;19.40;69.90
66140;DHT22;52945;51.908;8.364;2023-06-24T02:55:40;19.40;70.40
66140;DHT22;52945;51.908;8.364;2023-06-24T02:58:42;19.40;70.40
66140;DHT22;52945;51.908;8.364;2023-06-24T03:01:43;19.40;71.10
66140;DHT22;52945;51.908;8.364;2023-06-24T03:04:45;19.40;68.80
66140;DHT22;52945;51.908;8.364;2023-06-24T03:07:48;19.30;69.70
66140;DHT22;52945;51.908;8.364;2023-06-24T03:10:48;19.20;69.50
66140;DHT22;52945;51.908;8.364;2023-06-24T03:13:49;19.20;70.80
66140;DHT22;52945;51.908;8.364;2023-06-24T03:16:49;19.20;69.90
66140;DHT22;52945;51.908;8.364;2023-06-24T03:19:50;19.30;69.40
66140;DHT22;52945;51.908;8.364;2023-06-24T03:22:51;19.30;69.10
66140;DHT22;52945;51.908;8.364;2023-06-24T03:25:52;19.30;68.80
66140;DHT22;52945;51.908;8.364;2023-06-24T03:28:53;19.30;69.10
66140;DHT22;52945;51.908;8.364;2023-06-24T03:31:53;19.20;68.90
66140;DHT22;52945;51.908;8.364;2023-06-24T03:34:54;19.30;69.20
66140;DHT22;52945;51.908;8.364;2023-06-24T03:37:55;19.20;68.50
66140;DHT22;52945;51.908;8.364;2023-06-24T03:40:55;19.20;69.50
66140;DHT22;52945;51.908;8.364;2023-06-24T03:43:56;19.10;69.60
66140;DHT22;52945;51.908;8.364;2023-06-24T03:46:56;19.20;70.40
66140;DHT22;52945;51.908;8.364;2023-06-24T03:49:57;19.20;69.60
66140;DHT22;52945;51.908;8.364;2023-06-24T03:52:58;19.20;70.20
66140;DHT22;52945;51.908;8.364;2023-06-24T03:55:58;19.10;69.20
66140;DHT22;52945;51.908;8.364;2023-06-24T03:58:59;19.10;69.40
66140;DHT22;52945;51.908;8.364;2023-06-24T04:02:00;19.10;69.60
66140;DHT22;52945;51.908;8.364;2023-06-24T04:05:01;19.00;69.30
66140;DHT22;52945;51.908;8.364;2023-06-24T04:08:01;19.00;69.50
66140;DHT22;52945;51.908;8.364;2023-06-24T04:11:04;19.00;69.50
66140;DHT22;52945;51.908;8.364;2023-06-24T04:14:04;18.90;69.70
66140;DHT22;52945;51.908;8.364;2023-06-24T04:17:07;18.90;69.80
66140;DHT22;52945;51.908;8.364;2023-06-24T04:20:08;18.90;70.30
66140;DHT22;52945;51.908;8.364;2023-06-24T04:23:11;19.10;70.20
66140;DHT22;52945;51.908;8.364;2023-06-24T04:26:11;19.10;70.00
66140;DHT22;52945;51.908;8.364;2023-06-24T04:29:12;19.10;70.10
66140;DHT22;52945;51.908;8.364;2023-06-24T04:32:12;19.10;70.10
66140;DHT22;52945;51.908;8.364;2023-06-24T04:35:13;19.10;70.00
66140;DHT22;52945;51.908;8.364;2023-06-24T04:38:14;19.20;70.10
66140;DHT22;52945;51.908;8.364;2023-06-24T04:41:18;19.20;70.10
66140;DHT22;52945;51.908;8.364;2023-06-24T04:44:19;19.20;69.90
66140;DHT22;52945;51.908;8.364;2023-06-24T04:47:20;19.10;69.90
66140;DHT22;52945;51.908;8.364;2023-06-24T04:50:21;19.20;70.00
66140;DHT22;52945;51.908;8.364;2023-06-24T04:53:21;19.20;69.90
66140;DHT22;52945;51.908;8.364;2023-06-24T04:56:22;19.20;70.10
66140;DHT22;52945;51.908;8.364;2023-06-24T04:59:22;19.20;69.90
66140;DHT22;52945;51.908;8.364;2023-06-24T05:02:23;19.20;69.90
66140;DHT22;52945;51.908;8.364;2023-06-24T05:05:23;19.20;69.90
66140;DHT22;52945;51.908;8.364;2023-06-24T05:08:24;19.20;70.10
66140;DHT22;52945;51.908;8.364;2023-06-24T05:11:24;19.20;70.10
66140;DHT22;52945;51.908;8.364;2023-06-24T05:14:25;19.20;70.30
66140;DHT22;52945;51.908;8.364;2023-06-24T05:17:25;19.30;70.40
66140;DHT22;52945;51.908;8.364;2023-06-24T05:20:26;19.30;70.20
66140;DHT22;52945;51.908;8.364;2023-06-24T05:23:26;19.40;70.30
66140;DHT22;52945;51.908;8.364;2023-06-24T05:26:27;19.40;70.30
66140;DHT22;52945;51.908;8.364;2023-06-24T05:29:28;19.40;70.10
66140;DHT22;52945;51.908;8.364;2023-06-24T05:32:29;19.50;70.20
66140;DHT22;52945;51.908;8.364;2023-06-24T05:35:30;19.50;70.30
66140;DHT22;52945;51.908;8.364;2023-06-24T05:38:30;19.50;70.30
66140;DHT22;52945;51.908;8.364;2023-06-24T05:41:31;19.60;70.00
66140;DHT22;52945;51.908;8.364;2023-06-24T05:44:31;19.60;69.80
66140;DHT22;52945;51.908;8.364;2023-06-24T05:47:32;19.60;69.70
66140;DHT22;52945;51.908;8.364;2023-06-24T05:50:32;19.60;69.60
66140;DHT22;52945;51.908;8.364;2023-06-24T05:53:33;19.70;69.60
66140;DHT22;52945;51.908;8.364;2023-06-24T05:56:34;19.70;69.80
66140;DHT22;52945;51.908;8.364;2023-06-24T05:59:34;19.70;69.70
66140;DHT22;52945;51.908;8.364;2023-06-24T06:02:35;19.70;69.70
66140;DHT22;52945;51.908;8.364;2023-06-24T06:05:35;19.80;69.50
66140;DHT22;52945;51.908;8.364;2023-06-24T06:08:36;19.80;69.50
66140;DHT22;52945;51.908;8.364;2023-06-24T06:11:36;19.90;69.70
66140;DHT22;52945;51.908;8.364;2023-06-24T06:14:37;19.90;69.60
66140;DHT22;52945;51.908;8.364;2023-06-24T06:17:37;20.00;69.60
66140;DHT22;52945;51.908;8.364;2023-06-24T06:20:38;20.10;69.60
66140;DHT22;52945;51.908;8.364;2023-06-24T06:23:38;20.10;69.70
66140;DHT22;52945;51.908;8.364;2023-06-24T06:26:42;20.20;69.60
66140;DHT22;52945;51.908;8.364;2023-06-24T06:29:43;20.20;69.60
66140;DHT22;52945;51.908;8.364;2023-06-24T06:32:44;20.30;69.50
66140;DHT22;52945;51.908;8.364;2023-06-24T06:35:44;20.40;69.20
66140;DHT22;52945;51.908;8.364;2023-06-24T06:38:45;20.50;69.20
66140;DHT22;52945;51.908;8.364;2023-06-24T06:41:45;20.50;69.00
66140;DHT22;52945;51.908;8.364;2023-06-24T06:44:46;20.60;68.60
66140;DHT22;52945;51.908;8.364;2023-06-24T06:47:47;20.70;68.40
66140;DHT22;52945;51.908;8.364;2023-06-24T06:50:47;20.70;68.40
66140;DHT22;52945;51.908;8.364;2023-06-24T06:53:48;20.70;68.50
66140;DHT22;52945;51.908;8.364;2023-06-24T06:56:48;20.90;68.60
66140;DHT22;52945;51.908;8.364;2023-06-24T06:59:49;20.90;68.10
66140;DHT22;52945;51.908;8.364;2023-06-24T07:02:51;21.00;67.50
66140;DHT22;52945;51.908;8.364;2023-06-24T07:05:51;21.10;67.60
66140;DHT22;52945;51.908;8.364;2023-06-24T07:08:52;21.20;67.80
66140;DHT22;52945;51.908;8.364;2023-06-24T07:11:52;21.20;67.70
66140;DHT22;52945;51.908;8.364;2023-06-24T07:14:53;21.30;67.40
66140;DHT22;52945;51.908;8.364;2023-06-24T07:17:54;21.40;66.50
66140;DHT22;52945;51.908;8.364;2023-06-24T07:20:54;21.50;66.20
66140;DHT22;52945;51.908;8.364;2023-06-24T07:23:55;21.60;66.30
66140;DHT22;52945;51.908;8.364;2023-06-24T07:26:55;21.60;66.30
66140;DHT22;52945;51.908;8.364;2023-06-24T07:29:56;21.70;65.60
66140;DHT22;52945;51.908;8.364;2023-06-24T07:32:56;21.70;65.90
66140;DHT22;52945;51.908;8.364;2023-06-24T07:35:57;21.80;65.50
66140;DHT22;52945;51.908;8.364;2023-06-24T07:38:58;21.90;65.70
66140;DHT22;52945;51.908;8.364;2023-06-24T07:41:58;22.00;65.60
66140;DHT22;52945;51.908;8.364;2023-06-24T07:44:59;22.00;64.90
66140;DHT22;52945;51.908;8.364;2023-06-24T07:48:00;22.20;64.90
66140;DHT22;52945;51.908;8.364;2023-06-24T07:51:00;22.20;65.20
66140;DHT22;52945;51.908;8.364;2023-06-24T07:54:01;22.20;65.10
66140;DHT22;52945;51.908;8.364;2023-06-24T07:57:02;22.30;64.50
66140;DHT22;52945;51.908;8.364;2023-06-24T08:00:03;22.40;64.40
66140;DHT22;52945;51.908;8.364;2023-06-24T08:03:05;22.40;64.80
66140;DHT22;52945;51.908;8.364;2023-06-24T08:06:05;22.50;63.80
66140;DHT22;52945;51.908;8.364;2023-06-24T08:09:06;22.70;63.90
66140;DHT22;52945;51.908;8.364;2023-06-24T08:12:07;22.70;63.70
66140;DHT22;52945;51.908;8.364;2023-06-24T08:15:08;22.80;62.90
66140;DHT22;52945;51.908;8.364;2023-06-24T08:18:08;22.90;61.50
66140;DHT22;52945;51.908;8.364;2023-06-24T08:21:09;23.00;62.10
66140;DHT22;52945;51.908;8.364;2023-06-24T08:24:10;23.00;62.50
66140;DHT22;52945;51.908;8.364;2023-06-24T08:27:19;23.20;63.50
66140;DHT22;52945;51.908;8.364;2023-06-24T08:30:20;23.20;61.50
66140;DHT22;52945;51.908;8.364;2023-06-24T08:33:20;23.30;60.30
66140;DHT22;52945;51.908;8.364;2023-06-24T08:36:27;23.40;59.30
66140;DHT22;52945;51.908;8.364;2023-06-24T08:39:27;23.50;59.20
66140;DHT22;52945;51.908;8.364;2023-06-24T08:42:28;23.70;60.00
66140;DHT22;52945;51.908;8.364;2023-06-24T08:45:28;23.70;58.40
66140;DHT22;52945;51.908;8.364;2023-06-24T08:48:30;23.80;57.60
66140;DHT22;52945;51.908;8.364;2023-06-24T08:51:37;23.90;57.80
66140;DHT22;52945;51.908;8.364;2023-06-24T08:54:41;24.00;58.60
66140;DHT22;52945;51.908;8.364;2023-06-24T08:57:41;24.10;58.00
66140;DHT22;52945;51.908;8.364;2023-06-24T09:00:43;24.20;56.70
66140;DHT22;52945;51.908;8.364;2023-06-24T09:03:43;24.30;56.90
66140;DHT22;52945;51.908;8.364;2023-06-24T09:06:44;24.50;56.60
66140;DHT22;52945;51.908;8.364;2023-06-24T09:09:45;24.60;56.10
66140;DHT22;52945;51.908;8.364;2023-06-24T09:12:46;24.70;56.10
66140;DHT22;52945;51.908;8.364;2023-06-24T09:15:51;24.80;56.90
66140;DHT22;52945;51.908;8.364;2023-06-24T09:18:53;25.00;54.90
66140;DHT22;52945;51.908;8.364;2023-06-24T09:21:53;25.10;54.40
66140;DHT22;52945;51.908;8.364;2023-06-24T09:24:54;25.30;55.00
66140;DHT22;52945;51.908;8.364;2023-06-24T09:27:55;25.50;54.20
66140;DHT22;52945;51.908;8.364;2023-06-24T09:31:08;25.70;52.80
66140;DHT22;52945;51.908;8.364;2023-06-24T09:34:13;25.80;52.20
66140;DHT22;52945;51.908;8.364;2023-06-24T09:37:21;26.10;51.40
66140;DHT22;52945;51.908;8.364;2023-06-24T09:40:23;26.40;51.90
66140;DHT22;52945;51.908;8.364;2023-06-24T09:43:24;26.60;51.20
66140;DHT22;52945;51.908;8.364;2023-06-24T09:46:24;26.90;50.40
66140;DHT22;52945;51.908;8.364;2023-06-24T09:49:25;27.20;50.60
66140;DHT22;52945;51.908;8.364;2023-06-24T09:52:26;27.50;49.30
66140;DHT22;52945;51.908;8.364;2023-06-24T09:55:27;27.60;49.00
66140;DHT22;52945;51.908;8.364;2023-06-24T09:58:31;27.60;49.00
66140;DHT22;52945;51.908;8.364;2023-06-24T10:01:34;27.60;49.70
66140;DHT22;52945;51.908;8.364;2023-06-24T10:04:35;27.60;48.90
66140;DHT22;52945;51.908;8.364;2023-06-24T10:07:37;27.60;50.50
66140;DHT22;52945;51.908;8.364;2023-06-24T10:10:39;27.70;49.40
66140;DHT22;52945;51.908;8.364;2023-06-24T10:13:39;27.70;47.40
66140;DHT22;52945;51.908;8.364;2023-06-24T10:16:41;27.80;47.30
66140;DHT22;52945;51.908;8.364;2023-06-24T10:19:44;28.00;48.30
66140;DHT22;52945;51.908;8.364;2023-06-24T10:22:46;28.10;46.50
66140;DHT22;52945;51.908;8.364;2023-06-24T10:25:48;28.10;45.30
66140;DHT22;52945;51.908;8.364;2023-06-24T10:32:08;28.00;45.20
66140;DHT22;52945;51.908;8.364;2023-06-24T10:35:22;28.10;45.20
66140;DHT22;52945;51.908;8.364;2023-06-24T10:38:24;28.20;45.20
66140;DHT22;52945;51.908;8.364;2023-06-24T10:41:25;28.40;44.20
66140;DHT22;52945;51.908;8.364;2023-06-24T10:44:25;28.70;43.20
66140;DHT22;52945;51.908;8.364;2023-06-24T10:47:28;28.90;42.10
66140;DHT22;52945;51.908;8.364;2023-06-24T10:50:28;29.00;42.90
66140;DHT22;52945;51.908;8.364;2023-06-24T10:53:29;29.20;43.30
66140;DHT22;52945;51.908;8.364;2023-06-24T10:56:30;29.40;42.40
66140;DHT22;52945;51.908;8.364;2023-06-24T10:59:35;29.60;42.60
66140;DHT22;52945;51.908;8.364;2023-06-24T11:02:35;29.70;42.60
66140;DHT22;52945;51.908;8.364;2023-06-24T11:05:39;29.80;40.40
66140;DHT22;52945;51.908;8.364;2023-06-24T11:08:44;29.90;40.80
66140;DHT22;52945;51.908;8.364;2023-06-24T11:11:44;30.10;40.70
66140;DHT22;52945;51.908;8.364;2023-06-24T11:14:45;30.20;40.50
66140;DHT22;52945;51.908;8.364;2023-06-24T11:17:50;30.40;40.90
66140;DHT22;52945;51.908;8.364;2023-06-24T11:20:53;30.60;39.80
66140;DHT22;52945;51.908;8.364;2023-06-24T11:23:54;30.70;39.90
66140;DHT22;52945;51.908;8.364;2023-06-24T11:26:55;30.70;39.40
66140;DHT22;52945;51.908;8.364;2023-06-24T11:29:58;30.70;39.70
66140;DHT22;52945;51.908;8.364;2023-06-24T11:33:00;30.70;39.60
66140;DHT22;52945;51.908;8.364;2023-06-24T11:36:00;30.50;37.50
66140;DHT22;52945;51.908;8.364;2023-06-24T11:39:01;30.50;37.80
66140;DHT22;52945;51.908;8.364;2023-06-24T11:42:02;30.60;38.60
66140;DHT22;52945;51.908;8.364;2023-06-24T11:45:04;30.60;38.90
66140;DHT22;52945;51.908;8.364;2023-06-24T11:48:05;30.70;38.90
66140;DHT22;52945;51.908;8.364;2023-06-24T11:51:12;30.70;37.90
66140;DHT22;52945;51.908;8.364;2023-06-24T11:54:14;30.70;37.90
66140;DHT22;52945;51.908;8.364;2023-06-24T11:57:15;30.70;39.40
66140;DHT22;52945;51.908;8.364;2023-06-24T12:00:15;30.70;37.90
66140;DHT22;52945;51.908;8.364;2023-06-24T12:03:16;30.80;38.00
66140;DHT22;52945;51.908;8.364;2023-06-24T12:06:17;30.90;38.70
66140;DHT22;52945;51.908;8.364;2023-06-24T12:09:17;31.00;39.10
66140;DHT22;52945;51.908;8.364;2023-06-24T12:12:18;31.20;37.90
66140;DHT22;52945;51.908;8.364;2023-06-24T12:15:19;31.30;38.80
66140;DHT22;52945;51.908;8.364;2023-06-24T12:18:19;31.40;37.00
66140;DHT22;52945;51.908;8.364;2023-06-24T12:21:20;31.50;36.90
66140;DHT22;52945;51.908;8.364;2023-06-24T12:24:21;31.60;36.70
66140;DHT22;52945;51.908;8.364;2023-06-24T12:27:21;31.60;35.60
66140;DHT22;52945;51.908;8.364;2023-06-24T12:30:22;31.70;34.10
66140;DHT22;52945;51.908;8.364;2023-06-24T12:33:23;31.70;33.70
66140;DHT22;52945;51.908;8.364;2023-06-24T12:36:23;31.80;34.60
66140;DHT22;52945;51.908;8.364;2023-06-24T12:39:24;31.90;36.40
66140;DHT22;52945;51.908;8.364;2023-06-24T12:42:25;32.00;36.10
66140;DHT22;52945;51.908;8.364;2023-06-24T12:45:26;32.00;35.60
66140;DHT22;52945;51.908;8.364;2023-06-24T12:48:26;32.10;35.10
66140;DHT22;52945;51.908;8.364;2023-06-24T12:51:27;32.20;34.80
66140;DHT22;52945;51.908;8.364;2023-06-24T12:54:27;32.20;34.90
66140;DHT22;52945;51.908;8.364;2023-06-24T12:57:28;32.30;35.00
66140;DHT22;52945;51.908;8.364;2023-06-24T13:00:28;32.20;36.10
66140;DHT22;52945;51.908;8.364;2023-06-24T13:03:29;32.20;35.50
66140;DHT22;52945;51.908;8.364;2023-06-24T13:06:29;32.20;35.40
66140;DHT22;52945;51.908;8.364;2023-06-24T13:09:30;32.00;35.20
66140;DHT22;52945;51.908;8.364;2023-06-24T13:12:31;31.90;36.40
66140;DHT22;52945;51.908;8.364;2023-06-24T13:15:32;31.80;36.10
66140;DHT22;52945;51.908;8.364;2023-06-24T13:18:32;31.70;36.20
66140;DHT22;52945;51.908;8.364;2023-06-24T13:21:33;31.60;36.40
66140;DHT22;52945;51.908;8.364;2023-06-24T13:24:33;31.60;37.40
66140;DHT22;52945;51.908;8.364;2023-06-24T13:27:34;31.70;37.50
66140;DHT22;52945;51.908;8.364;2023-06-24T13:30:35;31.80;36.40
66140;DHT22;52945;51.908;8.364;2023-06-24T13:33:35;31.80;36.00
66140;DHT22;52945;51.908;8.364;2023-06-24T13:36:37;31.80;36.30
66140;DHT22;52945;51.908;8.364;2023-06-24T13:39:38;31.70;36.20
66140;DHT22;52945;51.908;8.364;2023-06-24T13:42:38;31.70;36.90
66140;DHT22;52945;51.908;8.364;2023-06-24T13:45:39;31.70;37.70
66140;DHT22;52945;51.908;8.364;2023-06-24T13:48:40;31.60;37.30
66140;DHT22;52945;51.908;8.364;2023-06-24T13:51:41;31.60;38.20
66140;DHT22;52945;51.908;8.364;2023-06-24T13:54:42;31.60;37.40
66140;DHT22;52945;51.908;8.364;2023-06-24T13:57:43;31.70;38.60
66140;DHT22;52945;51.908;8.364;2023-06-24T14:00:44;31.70;38.30
66140;DHT22;52945;51.908;8.364;2023-06-24T14:03:45;31.70;38.20
66140;DHT22;52945;51.908;8.364;2023-06-24T14:06:46;31.70;37.20
66140;DHT22;52945;51.908;8.364;2023-06-24T14:09:47;31.70;37.00
66140;DHT22;52945;51.908;8.364;2023-06-24T14:12:47;31.70;38.20
66140;DHT22;52945;51.908;8.364;2023-06-24T14:15:48;31.70;36.90
66140;DHT22;52945;51.908;8.364;2023-06-24T14:18:49;31.70;36.50
66140;DHT22;52945;51.908;8.364;2023-06-24T14:21:50;31.60;36.70
66140;DHT22;52945;51.908;8.364;2023-06-24T14:24:50;31.50;36.90
66140;DHT22;52945;51.908;8.364;2023-06-24T14:27:51;31.50;37.10
66140;DHT22;52945;51.908;8.364;2023-06-24T14:30:51;31.40;37.60
66140;DHT22;52945;51.908;8.364;2023-06-24T14:33:52;31.40;37.40
66140;DHT22;52945;51.908;8.364;2023-06-24T14:36:53;31.50;37.00
66140;DHT22;52945;51.908;8.364;2023-06-24T14:39:53;31.40;36.90
66140;DHT22;52945;51.908;8.364;2023-06-24T14:42:54;31.40;36.80
66140;DHT22;52945;51.908;8.364;2023-06-24T14:45:55;31.40;37.40
66140;DHT22;52945;51.908;8.364;2023-06-24T14:48:58;31.50;37.50
66140;DHT22;52945;51.908;8.364;2023-06-24T14:51:58;31.50;37.70
66140;DHT22;52945;51.908;8.364;2023-06-24T14:54:59;31.50;37.40
66140;DHT22;52945;51.908;8.364;2023-06-24T14:57:59;31.40;37.00
66140;DHT22;52945;51.908;8.364;2023-06-24T15:01:00;31.50;37.60
66140;DHT22;52945;51.908;8.364;2023-06-24T15:04:01;31.50;37.00
66140;DHT22;52945;51.908;8.364;2023-06-24T15:07:01;31.60;35.30
66140;DHT22;52945;51.908;8.364;2023-06-24T15:10:02;31.70;35.50
66140;DHT22;52945;51.908;8.364;2023-06-24T15:13:03;31.70;35.30
66140;DHT22;52945;51.908;8.364;2023-06-24T15:16:03;31.70;35.10
66140;DHT22;52945;51.908;8.364;2023-06-24T15:19:04;31.60;35.80
66140;DHT22;52945;51.908;8.364;2023-06-24T15:22:05;31.50;35.90
66140;DHT22;52945;51.908;8.364;2023-06-24T15:25:06;31.60;36.10
66140;DHT22;52945;51.908;8.364;2023-06-24T15:28:06;31.60;35.70
66140;DHT22;52945;51.908;8.364;2023-06-24T15:31:07;31.70;36.40
66140;DHT22;52945;51.908;8.364;2023-06-24T15:34:10;31.70;36.00
66140;DHT22;52945;51.908;8.364;2023-06-24T15:37:10;31.70;37.40
66140;DHT22;52945;51.908;8.364;2023-06-24T15:40:11;31.80;36.40
66140;DHT22;52945;51.908;8.364;2023-06-24T15:43:12;31.80;35.80
66140;DHT22;52945;51.908;8.364;2023-06-24T15:46:13;31.80;34.80
66140;DHT22;52945;51.908;8.364;2023-06-24T15:49:14;31.80;34.00
66140;DHT22;52945;51.908;8.364;2023-06-24T15:52:15;31.70;34.50
66140;DHT22;52945;51.908;8.364;2023-06-24T15:55:16;31.70;35.00
66140;DHT22;52945;51.908;8.364;2023-06-24T15:58:16;31.70;33.50
66140;DHT22;52945;51.908;8.364;2023-06-24T16:01:17;31.70;34.90
66140;DHT22;52945;51.908;8.364;2023-06-24T16:04:17;31.90;35.50
66140;DHT22;52945;51.908;8.364;2023-06-24T16:07:18;32.00;34.90
66140;DHT22;52945;51.908;8.364;2023-06-24T16:10:19;32.20;34.40
66140;DHT22;52945;51.908;8.364;2023-06-24T16:13:19;32.20;33.00
66140;DHT22;52945;51.908;8.364;2023-06-24T16:16:20;32.30;34.30
66140;DHT22;52945;51.908;8.364;2023-06-24T16:19:20;32.40;33.30
66140;DHT22;52945;51.908;8.364;2023-06-24T16:22:21;32.40;32.50
66140;DHT22;52945;51.908;8.364;2023-06-24T16:25:22;32.60;32.70
66140;DHT22;52945;51.908;8.364;2023-06-24T16:28:23;32.70;32.30
66140;DHT22;52945;51.908;8.364;2023-06-24T16:31:23;32.70;32.00
66140;DHT22;52945;51.908;8.364;2023-06-24T16:34:24;32.80;32.40
66140;DHT22;52945;51.908;8.364;2023-06-24T16:37:24;32.90;32.00
66140;DHT22;52945;51.908;8.364;2023-06-24T16:40:25;33.00;31.50
66140;DHT22;52945;51.908;8.364;2023-06-24T16:43:26;33.00;31.40
66140;DHT22;52945;51.908;8.364;2023-06-24T16:46:26;33.00;31.10
66140;DHT22;52945;51.908;8.364;2023-06-24T16:49:28;33.10;31.10
66140;DHT22;52945;51.908;8.364;2023-06-24T16:52:28;33.00;31.40
66140;DHT22;52945;51.908;8.364;2023-06-24T16:55:33;33.00;31.60
66140;DHT22;52945;51.908;8.364;2023-06-24T16:58:33;32.90;32.00
66140;DHT22;52945;51.908;8.364;2023-06-24T17:01:34;32.80;31.50
66140;DHT22;52945;51.908;8.364;2023-06-24T17:04:34;32.70;32.40
66140;DHT22;52945;51.908;8.364;2023-06-24T17:07:35;32.60;32.10
66140;DHT22;52945;51.908;8.364;2023-06-24T17:10:36;32.50;31.30
66140;DHT22;52945;51.908;8.364;2023-06-24T17:13:36;32.40;30.70
66140;DHT22;52945;51.908;8.364;2023-06-24T17:16:37;32.30;32.10
66140;DHT22;52945;51.908;8.364;2023-06-24T17:19:37;32.20;32.20
66140;DHT22;52945;51.908;8.364;2023-06-24T17:22:38;32.10;31.80
66140;DHT22;52945;51.908;8.364;2023-06-24T17:25:39;32.10;32.80
66140;DHT22;52945;51.908;8.364;2023-06-24T17:28:39;32.00;32.60
66140;DHT22;52945;51.908;8.364;2023-06-24T17:31:42;31.90;33.30
66140;DHT22;52945;51.908;8.364;2023-06-24T17:34:43;31.90;32.00
66140;DHT22;52945;51.908;8.364;2023-06-24T17:37:43;31.80;31.60
66140;DHT22;52945;51.908;8.364;2023-06-24T17:40:44;31.70;31.30
66140;DHT22;52945;51.908;8.364;2023-06-24T17:43:44;31.50;31.70
66140;DHT22;52945;51.908;8.364;2023-06-24T17:46:45;31.50;31.80
66140;DHT22;52945;51.908;8.364;2023-06-24T17:49:45;31.40;32.40
66140;DHT22;52945;51.908;8.364;2023-06-24T17:52:46;31.30;32.60
66140;DHT22;52945;51.908;8.364;2023-06-24T17:55:47;31.30;32.60
66140;DHT22;52945;51.908;8.364;2023-06-24T17:58:47;31.20;33.00
66140;DHT22;52945;51.908;8.364;2023-06-24T18:01:48;31.20;34.40
66140;DHT22;52945;51.908;8.364;2023-06-24T18:04:48;31.20;34.60
66140;DHT22;52945;51.908;8.364;2023-06-24T18:07:49;31.10;35.10
66140;DHT22;52945;51.908;8.364;2023-06-24T18:10:50;31.10;34.00
66140;DHT22;52945;51.908;8.364;2023-06-24T18:13:50;31.00;33.90
66140;DHT22;52945;51.908;8.364;2023-06-24T18:16:51;30.90;34.20
66140;DHT22;52945;51.908;8.364;2023-06-24T18:19:52;30.90;34.90
66140;DHT22;52945;51.908;8.364;2023-06-24T18:22:53;30.80;34.70
66140;DHT22;52945;51.908;8.364;2023-06-24T18:25:54;30.80;35.20
66140;DHT22;52945;51.908;8.364;2023-06-24T18:28:54;30.70;34.80
66140;DHT22;52945;51.908;8.364;2023-06-24T18:31:55;30.70;35.20
66140;DHT22;52945;51.908;8.364;2023-06-24T18:34:55;30.60;35.60
66140;DHT22;52945;51.908;8.364;2023-06-24T18:37:56;30.60;35.20
66140;DHT22;52945;51.908;8.364;2023-06-24T18:40:58;30.50;34.70
66140;DHT22;52945;51.908;8.364;2023-06-24T18:43:59;30.50;35.10
66140;DHT22;52945;51.908;8.364;2023-06-24T18:47:01;30.40;35.30
66140;DHT22;52945;51.908;8.364;2023-06-24T18:50:01;30.30;35.80
66140;DHT22;52945;51.908;8.364;2023-06-24T18:53:02;30.30;36.20
66140;DHT22;52945;51.908;8.364;2023-06-24T18:56:03;30.30;37.00
66140;DHT22;52945;51.908;8.364;2023-06-24T18:59:04;30.20;37.40
66140;DHT22;52945;51.908;8.364;2023-06-24T19:02:05;30.20;37.50
66140;DHT22;52945;51.908;8.364;2023-06-24T19:05:06;30.10;37.70
66140;DHT22;52945;51.908;8.364;2023-06-24T19:08:07;30.00;38.20
66140;DHT22;52945;51.908;8.364;2023-06-24T19:11:08;29.90;37.50
66140;DHT22;52945;51.908;8.364;2023-06-24T19:14:08;29.80;38.50
66140;DHT22;52945;51.908;8.364;2023-06-24T19:17:09;29.80;38.10
66140;DHT22;52945;51.908;8.364;2023-06-24T19:20:10;29.70;39.20